sensor_id;sensor_type;location;lat;lon;timestamp;temperature;humidity
53272;DHT22;39160;48.580;7.756;2024-01-06T00:01:13;9.30;99.90
53272;DHT22;39160;48.580;7.756;2024-01-06T00:06:04;9.30;99.90
53272;DHT22;39160;48.580;7.756;2024-01-06T00:10:55;9.30;99.90
53272;DHT22;39160;48.580;7.756;2024-01-06T00:15:46;9.20;99.90
53272;DHT22;39160;48.580;7.756;2024-01-06T00:20:36;9.20;99.90
53272;DHT22;39160;48.580;7.756;2024-01-06T00:25:27;9.20;99.90
53272;DHT22;39160;48.580;7.756;2024-01-06T00:30:18;9.20;99.90
53272;DHT22;39160;48.580;7.756;2024-01-06T00:35:08;9.10;99.90
53272;DHT22;39160;48.580;7.756;2024-01-06T00:40:00;9.10;99.90
53272;DHT22;39160;48.580;7.756;2024-01-06T00:44:50;9.10;99.90
53272;DHT22;39160;48.580;7.756;2024-01-06T00:49:41;9.10;99.90
53272;DHT22;39160;48.580;7.756;2024-01-06T00:54:31;9.10;99.90
53272;DHT22;39160;48.580;7.756;2024-01-06T00:59:22;9.10;99.90
53272;DHT22;39160;48.580;7.756;2024-01-06T01:04:13;9.10;99.90
53272;DHT22;39160;48.580;7.756;2024-01-06T01:09:03;9.10;99.90
53272;DHT22;39160;48.580;7.756;2024-01-06T01:13:54;9.10;99.90
53272;DHT22;39160;48.580;7.756;2024-01-06T01:18:45;9.10;99.90
53272;DHT22;39160;48.580;7.756;2024-01-06T01:23:36;9.00;99.90
53272;DHT22;39160;48.580;7.756;2024-01-06T01:28:26;9.10;99.90
53272;DHT22;39160;48.580;7.756;2024-01-06T01:33:17;9.10;99.90
53272;DHT22;39160;48.580;7.756;2024-01-06T01:38:08;9.10;99.90
53272;DHT22;39160;48.580;7.756;2024-01-06T01:42:59;9.00;99.90
53272;DHT22;39160;48.580;7.756;2024-01-06T01:47:50;9.00;99.90
53272;DHT22;39160;48.580;7.756;2024-01-06T01:52:42;8.90;99.90
53272;DHT22;39160;48.580;7.756;2024-01-06T01:57:33;9.00;99.90
53272;DHT22;39160;48.580;7.756;2024-01-06T02:02:23;9.00;99.90
53272;DHT22;39160;48.580;7.756;2024-01-06T02:07:14;9.00;99.90
53272;DHT22;39160;48.580;7.756;2024-01-06T02:12:05;8.90;99.90
53272;DHT22;39160;48.580;7.756;2024-01-06T02:16:56;9.00;99.90
53272;DHT22;39160;48.580;7.756;2024-01-06T02:21:52;9.00;99.90
53272;DHT22;39160;48.580;7.756;2024-01-06T02:26:43;9.00;99.90
53272;DHT22;39160;48.580;7.756;2024-01-06T02:31:33;9.00;99.90
53272;DHT22;39160;48.580;7.756;2024-01-06T02:36:24;9.00;99.90
53272;DHT22;39160;48.580;7.756;2024-01-06T02:41:15;8.90;99.90
53272;DHT22;39160;48.580;7.756;2024-01-06T02:46:07;8.90;99.90
53272;DHT22;39160;48.580;7.756;2024-01-06T02:50:57;8.90;99.90
53272;DHT22;39160;48.580;7.756;2024-01-06T02:55:48;8.90;99.90
53272;DHT22;39160;48.580;7.756;2024-01-06T03:00:38;8.90;99.90
53272;DHT22;39160;48.580;7.756;2024-01-06T03:05:29;8.80;99.90
53272;DHT22;39160;48.580;7.756;2024-01-06T03:10:20;8.80;99.90
53272;DHT22;39160;48.580;7.756;2024-01-06T03:15:10;8.80;99.90
53272;DHT22;39160;48.580;7.756;2024-01-06T03:20:02;8.90;99.90
53272;DHT22;39160;48.580;7.756;2024-01-06T03:24:52;8.90;99.90
53272;DHT22;39160;48.580;7.756;2024-01-06T03:29:43;8.80;99.90
53272;DHT22;39160;48.580;7.756;2024-01-06T03:34:34;8.80;99.90
53272;DHT22;39160;48.580;7.756;2024-01-06T03:39:24;8.80;99.90
53272;DHT22;39160;48.580;7.756;2024-01-06T03:44:15;8.80;99.90
53272;DHT22;39160;48.580;7.756;2024-01-06T03:49:06;8.80;99.90
53272;DHT22;39160;48.580;7.756;2024-01-06T03:53:56;8.80;99.90
53272;DHT22;39160;48.580;7.756;2024-01-06T03:58:47;8.80;99.90
53272;DHT22;39160;48.580;7.756;2024-01-06T04:03:38;8.80;99.90
53272;DHT22;39160;48.580;7.756;2024-01-06T04:08:32;8.80;99.90
53272;DHT22;39160;48.580;7.756;2024-01-06T04:13:23;8.80;99.90
53272;DHT22;39160;48.580;7.756;2024-01-06T04:18:15;8.80;99.90
53272;DHT22;39160;48.580;7.756;2024-01-06T04:23:05;8.90;99.90
53272;DHT22;39160;48.580;7.756;2024-01-06T04:27:56;8.80;99.90
53272;DHT22;39160;48.580;7.756;2024-01-06T04:32:47;8.80;99.90
53272;DHT22;39160;48.580;7.756;2024-01-06T04:37:38;8.80;99.90
53272;DHT22;39160;48.580;7.756;2024-01-06T04:42:29;8.80;99.90
53272;DHT22;39160;48.580;7.756;2024-01-06T04:47:20;8.80;99.90
53272;DHT22;39160;48.580;7.756;2024-01-06T04:52:11;8.80;99.90
53272;DHT22;39160;48.580;7.756;2024-01-06T04:57:02;8.80;99.90
53272;DHT22;39160;48.580;7.756;2024-01-06T05:01:53;8.80;99.90
53272;DHT22;39160;48.580;7.756;2024-01-06T05:06:44;8.80;99.90
53272;DHT22;39160;48.580;7.756;2024-01-06T05:11:35;8.80;99.90
53272;DHT22;39160;48.580;7.756;2024-01-06T05:16:25;8.80;99.90
53272;DHT22;39160;48.580;7.756;2024-01-06T05:21:16;8.80;99.90
53272;DHT22;39160;48.580;7.756;2024-01-06T05:26:07;8.80;99.90
53272;DHT22;39160;48.580;7.756;2024-01-06T05:30:58;8.80;99.90
53272;DHT22;39160;48.580;7.756;2024-01-06T05:35:48;8.80;99.90
53272;DHT22;39160;48.580;7.756;2024-01-06T05:40:39;8.70;99.90
53272;DHT22;39160;48.580;7.756;2024-01-06T05:45:29;8.70;99.90
53272;DHT22;39160;48.580;7.756;2024-01-06T05:50:20;8.70;99.90
53272;DHT22;39160;48.580;7.756;2024-01-06T05:55:11;8.70;99.90
53272;DHT22;39160;48.580;7.756;2024-01-06T06:00:02;8.70;99.90
53272;DHT22;39160;48.580;7.756;2024-01-06T06:04:52;8.60;99.90
53272;DHT22;39160;48.580;7.756;2024-01-06T06:09:43;8.70;99.90
53272;DHT22;39160;48.580;7.756;2024-01-06T06:14:34;8.70;99.90
53272;DHT22;39160;48.580;7.756;2024-01-06T06:19:24;8.70;99.90
53272;DHT22;39160;48.580;7.756;2024-01-06T06:24:15;8.70;99.90
53272;DHT22;39160;48.580;7.756;2024-01-06T06:29:06;8.70;99.90
53272;DHT22;39160;48.580;7.756;2024-01-06T06:33:56;8.60;99.90
53272;DHT22;39160;48.580;7.756;2024-01-06T06:38:47;8.70;99.90
53272;DHT22;39160;48.580;7.756;2024-01-06T06:43:37;8.70;99.90
53272;DHT22;39160;48.580;7.756;2024-01-06T06:48:28;8.70;99.90
53272;DHT22;39160;48.580;7.756;2024-01-06T06:53:19;8.70;99.90
53272;DHT22;39160;48.580;7.756;2024-01-06T06:58:09;8.70;99.90
53272;DHT22;39160;48.580;7.756;2024-01-06T07:03:00;8.70;99.90
53272;DHT22;39160;48.580;7.756;2024-01-06T07:07:51;8.60;99.90
53272;DHT22;39160;48.580;7.756;2024-01-06T07:12:42;8.60;99.90
53272;DHT22;39160;48.580;7.756;2024-01-06T07:17:32;8.70;99.90
53272;DHT22;39160;48.580;7.756;2024-01-06T07:22:23;8.70;99.90
53272;DHT22;39160;48.580;7.756;2024-01-06T07:27:14;8.70;99.90
53272;DHT22;39160;48.580;7.756;2024-01-06T07:32:05;8.70;99.90
53272;DHT22;39160;48.580;7.756;2024-01-06T07:36:59;8.70;99.90
53272;DHT22;39160;48.580;7.756;2024-01-06T07:41:50;8.70;99.90
53272;DHT22;39160;48.580;7.756;2024-01-06T07:46:41;8.70;99.90
53272;DHT22;39160;48.580;7.756;2024-01-06T07:51:32;8.70;99.90
53272;DHT22;39160;48.580;7.756;2024-01-06T07:56:25;8.70;99.90
53272;DHT22;39160;48.580;7.756;2024-01-06T08:01:15;8.70;99.90
53272;DHT22;39160;48.580;7.756;2024-01-06T08:06:06;8.60;99.90
53272;DHT22;39160;48.580;7.756;2024-01-06T08:10:57;8.60;99.90
53272;DHT22;39160;48.580;7.756;2024-01-06T08:15:48;8.60;99.90
53272;DHT22;39160;48.580;7.756;2024-01-06T08:20:38;8.60;99.90
53272;DHT22;39160;48.580;7.756;2024-01-06T08:25:29;8.60;99.90
53272;DHT22;39160;48.580;7.756;2024-01-06T08:30:20;8.60;99.90
53272;DHT22;39160;48.580;7.756;2024-01-06T08:35:10;8.70;99.90
53272;DHT22;39160;48.580;7.756;2024-01-06T08:40:01;8.70;99.90
53272;DHT22;39160;48.580;7.756;2024-01-06T08:44:53;8.70;99.90
53272;DHT22;39160;48.580;7.756;2024-01-06T08:49:44;8.70;99.90
53272;DHT22;39160;48.580;7.756;2024-01-06T08:54:34;8.70;99.90
53272;DHT22;39160;48.580;7.756;2024-01-06T08:59:25;8.80;99.90
53272;DHT22;39160;48.580;7.756;2024-01-06T09:04:16;8.80;99.90
53272;DHT22;39160;48.580;7.756;2024-01-06T09:09:07;8.80;99.90
53272;DHT22;39160;48.580;7.756;2024-01-06T09:13:59;8.80;99.90
53272;DHT22;39160;48.580;7.756;2024-01-06T09:18:49;8.90;99.90
53272;DHT22;39160;48.580;7.756;2024-01-06T09:23:40;8.80;99.90
53272;DHT22;39160;48.580;7.756;2024-01-06T09:28:31;8.90;99.90
53272;DHT22;39160;48.580;7.756;2024-01-06T09:33:22;8.90;99.90
53272;DHT22;39160;48.580;7.756;2024-01-06T09:38:13;8.90;99.90
53272;DHT22;39160;48.580;7.756;2024-01-06T09:43:04;8.90;99.90
53272;DHT22;39160;48.580;7.756;2024-01-06T09:47:54;8.80;99.90
53272;DHT22;39160;48.580;7.756;2024-01-06T09:52:47;8.80;99.90
53272;DHT22;39160;48.580;7.756;2024-01-06T09:57:45;8.90;99.90
53272;DHT22;39160;48.580;7.756;2024-01-06T10:02:36;8.90;99.90
53272;DHT22;39160;48.580;7.756;2024-01-06T10:07:26;8.90;99.90
53272;DHT22;39160;48.580;7.756;2024-01-06T10:12:17;8.90;99.90
53272;DHT22;39160;48.580;7.756;2024-01-06T10:17:08;8.80;99.90
53272;DHT22;39160;48.580;7.756;2024-01-06T10:21:59;8.80;99.90
53272;DHT22;39160;48.580;7.756;2024-01-06T10:26:52;8.80;99.90
53272;DHT22;39160;48.580;7.756;2024-01-06T10:31:43;8.80;99.90
53272;DHT22;39160;48.580;7.756;2024-01-06T10:36:33;8.80;99.90
53272;DHT22;39160;48.580;7.756;2024-01-06T10:41:26;8.80;99.90
53272;DHT22;39160;48.580;7.756;2024-01-06T10:46:22;8.80;99.90
53272;DHT22;39160;48.580;7.756;2024-01-06T10:51:14;8.70;99.90
53272;DHT22;39160;48.580;7.756;2024-01-06T10:56:08;8.70;99.90
53272;DHT22;39160;48.580;7.756;2024-01-06T11:01:00;8.70;99.90
53272;DHT22;39160;48.580;7.756;2024-01-06T11:05:51;8.70;99.90
53272;DHT22;39160;48.580;7.756;2024-01-06T11:10:41;8.60;99.90
53272;DHT22;39160;48.580;7.756;2024-01-06T11:15:42;8.70;99.90
53272;DHT22;39160;48.580;7.756;2024-01-06T11:20:33;8.70;99.90
53272;DHT22;39160;48.580;7.756;2024-01-06T11:25:24;8.70;99.90
53272;DHT22;39160;48.580;7.756;2024-01-06T11:30:24;8.80;99.90
53272;DHT22;39160;48.580;7.756;2024-01-06T11:35:15;8.80;99.90
53272;DHT22;39160;48.580;7.756;2024-01-06T11:45:13;8.80;99.90
53272;DHT22;39160;48.580;7.756;2024-01-06T11:50:04;8.70;99.90
53272;DHT22;39160;48.580;7.756;2024-01-06T11:54:55;8.70;99.90
53272;DHT22;39160;48.580;7.756;2024-01-06T11:59:48;8.70;99.90
53272;DHT22;39160;48.580;7.756;2024-01-06T12:04:39;8.70;99.90
53272;DHT22;39160;48.580;7.756;2024-01-06T12:09:33;8.70;99.90
53272;DHT22;39160;48.580;7.756;2024-01-06T12:14:24;8.60;99.90
53272;DHT22;39160;48.580;7.756;2024-01-06T12:19:14;8.60;99.90
53272;DHT22;39160;48.580;7.756;2024-01-06T12:24:19;8.70;99.90
53272;DHT22;39160;48.580;7.756;2024-01-06T12:29:11;8.70;99.90
53272;DHT22;39160;48.580;7.756;2024-01-06T12:34:02;8.70;99.90
53272;DHT22;39160;48.580;7.756;2024-01-06T12:38:54;8.70;99.90
53272;DHT22;39160;48.580;7.756;2024-01-06T12:43:46;8.60;99.90
53272;DHT22;39160;48.580;7.756;2024-01-06T12:48:38;8.60;99.90
53272;DHT22;39160;48.580;7.756;2024-01-06T12:53:29;8.60;99.90
53272;DHT22;39160;48.580;7.756;2024-01-06T12:58:19;8.60;99.90
53272;DHT22;39160;48.580;7.756;2024-01-06T13:03:10;8.60;99.90
53272;DHT22;39160;48.580;7.756;2024-01-06T13:08:01;8.80;99.90
53272;DHT22;39160;48.580;7.756;2024-01-06T13:12:52;8.80;99.90
53272;DHT22;39160;48.580;7.756;2024-01-06T13:17:43;8.80;99.90
53272;DHT22;39160;48.580;7.756;2024-01-06T13:22:33;8.90;99.90
53272;DHT22;39160;48.580;7.756;2024-01-06T13:27:25;8.90;99.90
53272;DHT22;39160;48.580;7.756;2024-01-06T13:32:17;8.80;99.90
53272;DHT22;39160;48.580;7.756;2024-01-06T13:37:09;8.90;99.90
53272;DHT22;39160;48.580;7.756;2024-01-06T13:42:01;8.90;99.90
53272;DHT22;39160;48.580;7.756;2024-01-06T13:46:53;8.80;99.90
53272;DHT22;39160;48.580;7.756;2024-01-06T13:51:45;8.80;99.90
53272;DHT22;39160;48.580;7.756;2024-01-06T13:56:36;8.80;99.90
53272;DHT22;39160;48.580;7.756;2024-01-06T14:01:27;8.70;99.90
53272;DHT22;39160;48.580;7.756;2024-01-06T14:06:18;8.70;99.90
53272;DHT22;39160;48.580;7.756;2024-01-06T14:11:08;8.80;99.90
53272;DHT22;39160;48.580;7.756;2024-01-06T14:15:59;8.60;99.90
53272;DHT22;39160;48.580;7.756;2024-01-06T14:20:50;8.70;99.90
53272;DHT22;39160;48.580;7.756;2024-01-06T14:25:41;8.60;99.90
53272;DHT22;39160;48.580;7.756;2024-01-06T14:30:33;8.60;99.90
53272;DHT22;39160;48.580;7.756;2024-01-06T14:35:24;8.70;99.90
53272;DHT22;39160;48.580;7.756;2024-01-06T14:40:14;8.60;99.90
53272;DHT22;39160;48.580;7.756;2024-01-06T14:45:05;8.70;99.90
53272;DHT22;39160;48.580;7.756;2024-01-06T14:49:58;8.70;99.90
53272;DHT22;39160;48.580;7.756;2024-01-06T14:54:49;8.60;99.90
53272;DHT22;39160;48.580;7.756;2024-01-06T14:59:40;8.60;99.90
53272;DHT22;39160;48.580;7.756;2024-01-06T15:04:30;8.70;99.90
53272;DHT22;39160;48.580;7.756;2024-01-06T15:09:21;8.70;99.90
53272;DHT22;39160;48.580;7.756;2024-01-06T15:14:14;8.70;99.90
53272;DHT22;39160;48.580;7.756;2024-01-06T15:19:05;8.70;99.90
53272;DHT22;39160;48.580;7.756;2024-01-06T15:23:58;8.60;99.90
53272;DHT22;39160;48.580;7.756;2024-01-06T15:28:48;8.60;99.90
53272;DHT22;39160;48.580;7.756;2024-01-06T15:33:40;8.50;99.90
53272;DHT22;39160;48.580;7.756;2024-01-06T15:38:32;8.50;99.90
53272;DHT22;39160;48.580;7.756;2024-01-06T15:43:23;8.50;99.90
53272;DHT22;39160;48.580;7.756;2024-01-06T15:48:13;8.50;99.90
53272;DHT22;39160;48.580;7.756;2024-01-06T15:53:04;8.50;99.90
53272;DHT22;39160;48.580;7.756;2024-01-06T15:57:55;8.50;99.90
53272;DHT22;39160;48.580;7.756;2024-01-06T16:02:45;8.60;99.90
53272;DHT22;39160;48.580;7.756;2024-01-06T16:07:36;8.60;99.90
53272;DHT22;39160;48.580;7.756;2024-01-06T16:12:27;8.50;99.90
53272;DHT22;39160;48.580;7.756;2024-01-06T16:17:19;8.50;99.90
53272;DHT22;39160;48.580;7.756;2024-01-06T16:22:10;8.50;99.90
53272;DHT22;39160;48.580;7.756;2024-01-06T16:27:00;8.50;99.90
53272;DHT22;39160;48.580;7.756;2024-01-06T16:31:51;8.50;99.90
53272;DHT22;39160;48.580;7.756;2024-01-06T16:36:42;8.50;99.90
53272;DHT22;39160;48.580;7.756;2024-01-06T16:41:32;8.50;99.90
53272;DHT22;39160;48.580;7.756;2024-01-06T16:46:23;8.50;99.90
53272;DHT22;39160;48.580;7.756;2024-01-06T16:51:15;8.50;99.90
53272;DHT22;39160;48.580;7.756;2024-01-06T16:56:06;8.50;99.90
53272;DHT22;39160;48.580;7.756;2024-01-06T17:00:56;8.60;99.90
53272;DHT22;39160;48.580;7.756;2024-01-06T17:05:47;8.60;99.90
53272;DHT22;39160;48.580;7.756;2024-01-06T17:10:38;8.50;99.90
53272;DHT22;39160;48.580;7.756;2024-01-06T17:15:28;8.60;99.90
53272;DHT22;39160;48.580;7.756;2024-01-06T17:20:19;8.50;99.90
53272;DHT22;39160;48.580;7.756;2024-01-06T17:25:10;8.50;99.90
53272;DHT22;39160;48.580;7.756;2024-01-06T17:30:03;8.50;99.90
53272;DHT22;39160;48.580;7.756;2024-01-06T17:34:54;8.40;99.90
53272;DHT22;39160;48.580;7.756;2024-01-06T17:39:45;8.50;99.90
53272;DHT22;39160;48.580;7.756;2024-01-06T17:44:36;8.50;99.90
53272;DHT22;39160;48.580;7.756;2024-01-06T17:49:29;8.40;99.90
53272;DHT22;39160;48.580;7.756;2024-01-06T17:54:20;8.40;99.90
53272;DHT22;39160;48.580;7.756;2024-01-06T17:59:11;8.50;99.90
53272;DHT22;39160;48.580;7.756;2024-01-06T18:04:02;8.50;99.90
53272;DHT22;39160;48.580;7.756;2024-01-06T18:08:53;8.50;99.90
53272;DHT22;39160;48.580;7.756;2024-01-06T18:13:43;8.50;99.90
53272;DHT22;39160;48.580;7.756;2024-01-06T18:18:34;8.50;99.90
53272;DHT22;39160;48.580;7.756;2024-01-06T18:23:25;8.50;99.90
53272;DHT22;39160;48.580;7.756;2024-01-06T18:28:15;8.50;99.90
53272;DHT22;39160;48.580;7.756;2024-01-06T18:33:06;8.60;99.90
53272;DHT22;39160;48.580;7.756;2024-01-06T18:37:57;8.60;99.90
53272;DHT22;39160;48.580;7.756;2024-01-06T18:42:47;8.50;99.90
53272;DHT22;39160;48.580;7.756;2024-01-06T18:47:38;8.50;99.90
53272;DHT22;39160;48.580;7.756;2024-01-06T18:52:31;8.50;99.90
53272;DHT22;39160;48.580;7.756;2024-01-06T18:57:24;8.50;99.90
53272;DHT22;39160;48.580;7.756;2024-01-06T19:02:15;8.50;99.90
53272;DHT22;39160;48.580;7.756;2024-01-06T19:07:05;8.50;99.90
53272;DHT22;39160;48.580;7.756;2024-01-06T19:11:58;8.50;99.90
53272;DHT22;39160;48.580;7.756;2024-01-06T19:16:50;8.40;99.90
53272;DHT22;39160;48.580;7.756;2024-01-06T19:21:40;8.40;99.90
53272;DHT22;39160;48.580;7.756;2024-01-06T19:26:31;8.40;99.90
53272;DHT22;39160;48.580;7.756;2024-01-06T19:31:21;8.40;99.90
53272;DHT22;39160;48.580;7.756;2024-01-06T19:36:12;8.40;99.90
53272;DHT22;39160;48.580;7.756;2024-01-06T19:41:04;8.40;99.90
53272;DHT22;39160;48.580;7.756;2024-01-06T19:45:55;8.40;99.90
53272;DHT22;39160;48.580;7.756;2024-01-06T19:50:46;8.30;99.90
53272;DHT22;39160;48.580;7.756;2024-01-06T19:55:36;8.40;99.90
53272;DHT22;39160;48.580;7.756;2024-01-06T20:00:30;8.30;99.90
53272;DHT22;39160;48.580;7.756;2024-01-06T20:05:21;8.30;99.90
53272;DHT22;39160;48.580;7.756;2024-01-06T20:10:11;8.30;99.90
53272;DHT22;39160;48.580;7.756;2024-01-06T20:15:02;8.30;99.90
53272;DHT22;39160;48.580;7.756;2024-01-06T20:19:53;8.20;99.90
53272;DHT22;39160;48.580;7.756;2024-01-06T20:24:44;8.30;99.90
53272;DHT22;39160;48.580;7.756;2024-01-06T20:29:35;8.20;99.90
53272;DHT22;39160;48.580;7.756;2024-01-06T20:34:25;8.10;99.90
53272;DHT22;39160;48.580;7.756;2024-01-06T20:39:16;8.30;99.90
53272;DHT22;39160;48.580;7.756;2024-01-06T20:44:10;8.20;99.90
53272;DHT22;39160;48.580;7.756;2024-01-06T20:49:01;8.20;99.90
53272;DHT22;39160;48.580;7.756;2024-01-06T20:53:52;8.10;99.90
53272;DHT22;39160;48.580;7.756;2024-01-06T20:58:43;8.10;99.90
53272;DHT22;39160;48.580;7.756;2024-01-06T21:03:36;8.10;99.90
53272;DHT22;39160;48.580;7.756;2024-01-06T21:08:29;8.10;99.90
53272;DHT22;39160;48.580;7.756;2024-01-06T21:13:19;8.10;99.90
53272;DHT22;39160;48.580;7.756;2024-01-06T21:18:10;8.10;99.90
53272;DHT22;39160;48.580;7.756;2024-01-06T21:23:01;8.10;99.90
53272;DHT22;39160;48.580;7.756;2024-01-06T21:27:53;8.10;99.90
53272;DHT22;39160;48.580;7.756;2024-01-06T21:32:44;8.20;99.90
53272;DHT22;39160;48.580;7.756;2024-01-06T21:37:36;8.20;99.90
53272;DHT22;39160;48.580;7.756;2024-01-06T21:42:28;8.10;99.90
53272;DHT22;39160;48.580;7.756;2024-01-06T21:47:19;8.10;99.90
53272;DHT22;39160;48.580;7.756;2024-01-06T21:52:10;8.10;99.90
53272;DHT22;39160;48.580;7.756;2024-01-06T21:57:00;8.10;99.90
53272;DHT22;39160;48.580;7.756;2024-01-06T22:01:51;8.10;99.90
53272;DHT22;39160;48.580;7.756;2024-01-06T22:06:42;8.10;99.90
53272;DHT22;39160;48.580;7.756;2024-01-06T22:11:36;8.10;99.90
53272;DHT22;39160;48.580;7.756;2024-01-06T22:16:28;8.10;99.90
53272;DHT22;39160;48.580;7.756;2024-01-06T22:21:19;8.10;99.90
53272;DHT22;39160;48.580;7.756;2024-01-06T22:26:09;8.10;99.90
53272;DHT22;39160;48.580;7.756;2024-01-06T22:31:00;8.00;99.90
53272;DHT22;39160;48.580;7.756;2024-01-06T22:35:53;8.00;99.90
53272;DHT22;39160;48.580;7.756;2024-01-06T22:40:43;8.10;99.90
53272;DHT22;39160;48.580;7.756;2024-01-06T22:45:34;8.10;99.90
53272;DHT22;39160;48.580;7.756;2024-01-06T22:50:25;8.10;99.90
53272;DHT22;39160;48.580;7.756;2024-01-06T22:55:16;8.10;99.90
53272;DHT22;39160;48.580;7.756;2024-01-06T23:00:07;8.00;99.90
53272;DHT22;39160;48.580;7.756;2024-01-06T23:05:07;8.00;99.90
53272;DHT22;39160;48.580;7.756;2024-01-06T23:09:58;8.00;99.90
53272;DHT22;39160;48.580;7.756;2024-01-06T23:14:49;8.00;99.90
53272;DHT22;39160;48.580;7.756;2024-01-06T23:19:39;8.00;99.90
53272;DHT22;39160;48.580;7.756;2024-01-06T23:24:32;8.00;99.90
53272;DHT22;39160;48.580;7.756;2024-01-06T23:29:23;7.90;99.90
53272;DHT22;39160;48.580;7.756;2024-01-06T23:34:14;7.90;99.90
53272;DHT22;39160;48.580;7.756;2024-01-06T23:39:04;7.90;99.90
53272;DHT22;39160;48.580;7.756;2024-01-06T23:43:55;7.90;99.90
53272;DHT22;39160;48.580;7.756;2024-01-06T23:48:46;7.90;99.90
53272;DHT22;39160;48.580;7.756;2024-01-06T23:53:37;7.90;99.90
53272;DHT22;39160;48.580;7.756;2024-01-06T23:58:27;7.90;99.90
